sensor_id;sensor_type;location;lat;lon;timestamp;P1;durP1;ratioP1;P2;durP2;ratioP2
1475;SDS011;730;48.870;12.542;2023-09-19T00:01:35;3.70;;;2.10;;
1475;SDS011;730;48.870;12.542;2023-09-19T00:04:01;4.70;;;3.27;;
1475;SDS011;730;48.870;12.542;2023-09-19T00:06:28;4.20;;;3.43;;
1475;SDS011;730;48.870;12.542;2023-09-19T00:08:57;4.40;;;3.23;;
1475;SDS011;730;48.870;12.542;2023-09-19T00:11:26;5.30;;;3.17;;
1475;SDS011;730;48.870;12.542;2023-09-19T00:13:52;4.67;;;2.70;;
1475;SDS011;730;48.870;12.542;2023-09-19T00:16:19;4.30;;;2.63;;
1475;SDS011;730;48.870;12.542;2023-09-19T00:18:45;4.70;;;2.83;;
1475;SDS011;730;48.870;12.542;2023-09-19T00:21:11;4.80;;;2.97;;
1475;SDS011;730;48.870;12.542;2023-09-19T00:23:38;4.30;;;2.90;;
1475;SDS011;730;48.870;12.542;2023-09-19T00:26:06;4.50;;;2.80;;
1475;SDS011;730;48.870;12.542;2023-09-19T00:28:32;4.90;;;2.70;;
1475;SDS011;730;48.870;12.542;2023-09-19T00:30:58;3.00;;;2.60;;
1475;SDS011;730;48.870;12.542;2023-09-19T00:33:27;5.20;;;2.40;;
1475;SDS011;730;48.870;12.542;2023-09-19T00:35:54;2.07;;;1.90;;
1475;SDS011;730;48.870;12.542;2023-09-19T00:38:22;6.30;;;2.43;;
1475;SDS011;730;48.870;12.542;2023-09-19T00:40:52;2.10;;;1.90;;
1475;SDS011;730;48.870;12.542;2023-09-19T00:43:20;2.70;;;2.30;;
1475;SDS011;730;48.870;12.542;2023-09-19T00:45:47;3.77;;;1.80;;
1475;SDS011;730;48.870;12.542;2023-09-19T00:48:16;3.60;;;2.27;;
1475;SDS011;730;48.870;12.542;2023-09-19T00:50:44;4.60;;;1.83;;
1475;SDS011;730;48.870;12.542;2023-09-19T00:53:17;2.50;;;1.73;;
1475;SDS011;730;48.870;12.542;2023-09-19T00:55:47;3.23;;;2.20;;
1475;SDS011;730;48.870;12.542;2023-09-19T00:58:13;4.10;;;2.20;;
1475;SDS011;730;48.870;12.542;2023-09-19T01:00:41;2.43;;;1.80;;
1475;SDS011;730;48.870;12.542;2023-09-19T01:03:10;2.47;;;1.77;;
1475;SDS011;730;48.870;12.542;2023-09-19T01:05:38;4.10;;;2.63;;
1475;SDS011;730;48.870;12.542;2023-09-19T01:08:05;4.37;;;3.13;;
1475;SDS011;730;48.870;12.542;2023-09-19T01:10:32;2.93;;;2.40;;
1475;SDS011;730;48.870;12.542;2023-09-19T01:13:09;4.43;;;3.60;;
1475;SDS011;730;48.870;12.542;2023-09-19T01:18:52;3.90;;;3.17;;
1475;SDS011;730;48.870;12.542;2023-09-19T01:24:29;7.37;;;3.67;;
1475;SDS011;730;48.870;12.542;2023-09-19T01:27:23;4.13;;;2.80;;
1475;SDS011;730;48.870;12.542;2023-09-19T01:30:08;6.17;;;3.50;;
1475;SDS011;730;48.870;12.542;2023-09-19T01:32:43;4.47;;;3.40;;
1475;SDS011;730;48.870;12.542;2023-09-19T01:35:11;4.33;;;3.50;;
1475;SDS011;730;48.870;12.542;2023-09-19T01:37:38;4.77;;;3.50;;
1475;SDS011;730;48.870;12.542;2023-09-19T01:40:06;5.90;;;3.80;;
1475;SDS011;730;48.870;12.542;2023-09-19T01:42:45;4.80;;;2.93;;
1475;SDS011;730;48.870;12.542;2023-09-19T01:45:33;3.70;;;3.40;;
1475;SDS011;730;48.870;12.542;2023-09-19T01:51:20;5.90;;;3.60;;
1475;SDS011;730;48.870;12.542;2023-09-19T01:53:55;5.40;;;3.20;;
1475;SDS011;730;48.870;12.542;2023-09-19T01:56:35;4.07;;;3.67;;
1475;SDS011;730;48.870;12.542;2023-09-19T01:59:06;5.67;;;3.77;;
1475;SDS011;730;48.870;12.542;2023-09-19T02:01:37;4.77;;;3.53;;
1475;SDS011;730;48.870;12.542;2023-09-19T02:04:03;8.70;;;4.90;;
1475;SDS011;730;48.870;12.542;2023-09-19T02:06:30;7.13;;;3.80;;
1475;SDS011;730;48.870;12.542;2023-09-19T02:08:56;6.60;;;4.13;;
1475;SDS011;730;48.870;12.542;2023-09-19T02:11:22;6.53;;;3.70;;
1475;SDS011;730;48.870;12.542;2023-09-19T02:13:49;4.40;;;3.30;;
1475;SDS011;730;48.870;12.542;2023-09-19T02:16:20;3.33;;;2.80;;
1475;SDS011;730;48.870;12.542;2023-09-19T02:18:50;3.90;;;3.50;;
1475;SDS011;730;48.870;12.542;2023-09-19T02:21:16;5.23;;;3.13;;
1475;SDS011;730;48.870;12.542;2023-09-19T02:23:46;4.00;;;3.33;;
1475;SDS011;730;48.870;12.542;2023-09-19T02:26:13;4.00;;;3.17;;
1475;SDS011;730;48.870;12.542;2023-09-19T02:28:39;4.10;;;3.27;;
1475;SDS011;730;48.870;12.542;2023-09-19T02:31:05;4.70;;;2.77;;
1475;SDS011;730;48.870;12.542;2023-09-19T02:33:31;3.10;;;2.80;;
1475;SDS011;730;48.870;12.542;2023-09-19T02:35:58;5.63;;;3.23;;
1475;SDS011;730;48.870;12.542;2023-09-19T02:38:25;3.23;;;2.53;;
1475;SDS011;730;48.870;12.542;2023-09-19T02:40:51;5.40;;;3.23;;
1475;SDS011;730;48.870;12.542;2023-09-19T02:43:18;3.87;;;3.00;;
1475;SDS011;730;48.870;12.542;2023-09-19T02:45:45;5.10;;;2.80;;
1475;SDS011;730;48.870;12.542;2023-09-19T02:48:12;4.17;;;3.30;;
1475;SDS011;730;48.870;12.542;2023-09-19T02:50:38;5.80;;;3.00;;
1475;SDS011;730;48.870;12.542;2023-09-19T02:53:05;3.83;;;3.37;;
1475;SDS011;730;48.870;12.542;2023-09-19T02:55:32;3.60;;;3.10;;
1475;SDS011;730;48.870;12.542;2023-09-19T02:57:58;4.53;;;3.13;;
1475;SDS011;730;48.870;12.542;2023-09-19T03:00:24;3.53;;;2.83;;
1475;SDS011;730;48.870;12.542;2023-09-19T03:02:52;5.80;;;3.30;;
1475;SDS011;730;48.870;12.542;2023-09-19T03:05:19;3.00;;;2.70;;
1475;SDS011;730;48.870;12.542;2023-09-19T03:07:47;3.67;;;3.13;;
1475;SDS011;730;48.870;12.542;2023-09-19T03:10:16;5.10;;;2.87;;
1475;SDS011;730;48.870;12.542;2023-09-19T03:12:43;3.27;;;2.90;;
1475;SDS011;730;48.870;12.542;2023-09-19T03:15:14;7.40;;;3.70;;
1475;SDS011;730;48.870;12.542;2023-09-19T03:17:44;4.40;;;2.90;;
1475;SDS011;730;48.870;12.542;2023-09-19T03:20:11;2.90;;;2.60;;
1475;SDS011;730;48.870;12.542;2023-09-19T03:22:38;3.67;;;2.53;;
1475;SDS011;730;48.870;12.542;2023-09-19T03:25:08;4.90;;;2.80;;
1475;SDS011;730;48.870;12.542;2023-09-19T03:27:37;3.70;;;3.10;;
1475;SDS011;730;48.870;12.542;2023-09-19T03:30:04;5.70;;;3.53;;
1475;SDS011;730;48.870;12.542;2023-09-19T03:32:34;3.07;;;2.70;;
1475;SDS011;730;48.870;12.542;2023-09-19T03:35:01;4.73;;;2.80;;
1475;SDS011;730;48.870;12.542;2023-09-19T03:37:31;5.57;;;3.37;;
1475;SDS011;730;48.870;12.542;2023-09-19T03:39:58;3.20;;;2.90;;
1475;SDS011;730;48.870;12.542;2023-09-19T03:42:24;7.13;;;3.20;;
1475;SDS011;730;48.870;12.542;2023-09-19T03:44:52;5.10;;;2.93;;
1475;SDS011;730;48.870;12.542;2023-09-19T03:47:18;5.00;;;2.93;;
1475;SDS011;730;48.870;12.542;2023-09-19T03:49:47;9.60;;;3.60;;
1475;SDS011;730;48.870;12.542;2023-09-19T03:52:13;5.30;;;3.00;;
1475;SDS011;730;48.870;12.542;2023-09-19T03:54:41;4.13;;;2.70;;
1475;SDS011;730;48.870;12.542;2023-09-19T03:57:08;3.70;;;2.87;;
1475;SDS011;730;48.870;12.542;2023-09-19T03:59:34;3.50;;;2.50;;
1475;SDS011;730;48.870;12.542;2023-09-19T04:02:01;2.50;;;2.10;;
1475;SDS011;730;48.870;12.542;2023-09-19T04:04:27;6.00;;;2.40;;
1475;SDS011;730;48.870;12.542;2023-09-19T04:06:54;6.13;;;2.30;;
1475;SDS011;730;48.870;12.542;2023-09-19T04:09:20;3.10;;;2.07;;
1475;SDS011;730;48.870;12.542;2023-09-19T04:11:47;3.40;;;2.30;;
1475;SDS011;730;48.870;12.542;2023-09-19T04:14:13;3.70;;;2.60;;
1475;SDS011;730;48.870;12.542;2023-09-19T04:16:39;3.83;;;2.90;;
1475;SDS011;730;48.870;12.542;2023-09-19T04:19:05;3.03;;;2.30;;
1475;SDS011;730;48.870;12.542;2023-09-19T04:21:31;3.27;;;2.43;;
1475;SDS011;730;48.870;12.542;2023-09-19T04:23:57;5.80;;;2.83;;
1475;SDS011;730;48.870;12.542;2023-09-19T04:26:23;14.60;;;9.80;;
1475;SDS011;730;48.870;12.542;2023-09-19T04:28:51;4.10;;;3.70;;
1475;SDS011;730;48.870;12.542;2023-09-19T04:31:17;3.53;;;2.33;;
1475;SDS011;730;48.870;12.542;2023-09-19T04:33:45;16.20;;;9.17;;
1475;SDS011;730;48.870;12.542;2023-09-19T04:36:11;2.50;;;2.30;;
1475;SDS011;730;48.870;12.542;2023-09-19T04:38:38;4.13;;;2.00;;
1475;SDS011;730;48.870;12.542;2023-09-19T04:41:05;3.07;;;1.90;;
1475;SDS011;730;48.870;12.542;2023-09-19T04:43:31;3.10;;;2.03;;
1475;SDS011;730;48.870;12.542;2023-09-19T04:45:57;2.57;;;1.90;;
1475;SDS011;730;48.870;12.542;2023-09-19T04:48:25;3.90;;;2.23;;
1475;SDS011;730;48.870;12.542;2023-09-19T04:50:51;3.53;;;1.90;;
1475;SDS011;730;48.870;12.542;2023-09-19T04:53:18;2.57;;;2.20;;
1475;SDS011;730;48.870;12.542;2023-09-19T04:55:49;4.97;;;3.43;;
1475;SDS011;730;48.870;12.542;2023-09-19T04:58:23;3.20;;;2.00;;
1475;SDS011;730;48.870;12.542;2023-09-19T05:00:49;2.97;;;2.67;;
1475;SDS011;730;48.870;12.542;2023-09-19T05:03:16;3.40;;;2.07;;
1475;SDS011;730;48.870;12.542;2023-09-19T05:05:43;2.47;;;1.80;;
1475;SDS011;730;48.870;12.542;2023-09-19T05:08:21;2.50;;;1.77;;
1475;SDS011;730;48.870;12.542;2023-09-19T05:10:47;2.57;;;1.77;;
1475;SDS011;730;48.870;12.542;2023-09-19T05:13:14;3.77;;;2.13;;
1475;SDS011;730;48.870;12.542;2023-09-19T05:15:45;2.13;;;1.80;;
1475;SDS011;730;48.870;12.542;2023-09-19T05:18:11;1.73;;;1.40;;
1475;SDS011;730;48.870;12.542;2023-09-19T05:20:37;2.23;;;1.70;;
1475;SDS011;730;48.870;12.542;2023-09-19T05:23:05;2.13;;;1.70;;
1475;SDS011;730;48.870;12.542;2023-09-19T05:25:35;3.43;;;1.73;;
1475;SDS011;730;48.870;12.542;2023-09-19T05:30:35;4.90;;;1.70;;
1475;SDS011;730;48.870;12.542;2023-09-19T05:33:02;3.93;;;1.63;;
1475;SDS011;730;48.870;12.542;2023-09-19T05:35:29;1.90;;;1.53;;
1475;SDS011;730;48.870;12.542;2023-09-19T05:37:56;2.73;;;1.87;;
1475;SDS011;730;48.870;12.542;2023-09-19T05:40:23;3.10;;;1.50;;
1475;SDS011;730;48.870;12.542;2023-09-19T05:42:50;2.70;;;1.47;;
1475;SDS011;730;48.870;12.542;2023-09-19T05:45:16;2.53;;;1.47;;
1475;SDS011;730;48.870;12.542;2023-09-19T05:47:49;1.70;;;1.40;;
1475;SDS011;730;48.870;12.542;2023-09-19T05:50:16;5.93;;;1.50;;
1475;SDS011;730;48.870;12.542;2023-09-19T05:52:47;2.33;;;1.57;;
1475;SDS011;730;48.870;12.542;2023-09-19T05:55:17;3.80;;;2.20;;
1475;SDS011;730;48.870;12.542;2023-09-19T05:57:48;2.40;;;1.43;;
1475;SDS011;730;48.870;12.542;2023-09-19T06:00:16;2.40;;;1.30;;
1475;SDS011;730;48.870;12.542;2023-09-19T06:02:43;3.30;;;1.20;;
1475;SDS011;730;48.870;12.542;2023-09-19T06:05:10;2.07;;;1.03;;
1475;SDS011;730;48.870;12.542;2023-09-19T06:07:36;3.37;;;1.13;;
1475;SDS011;730;48.870;12.542;2023-09-19T06:10:04;1.67;;;1.13;;
1475;SDS011;730;48.870;12.542;2023-09-19T06:12:37;1.57;;;1.20;;
1475;SDS011;730;48.870;12.542;2023-09-19T06:15:09;4.60;;;1.50;;
1475;SDS011;730;48.870;12.542;2023-09-19T06:17:46;1.83;;;1.40;;
1475;SDS011;730;48.870;12.542;2023-09-19T06:20:22;2.80;;;1.30;;
1475;SDS011;730;48.870;12.542;2023-09-19T06:22:49;2.60;;;1.47;;
1475;SDS011;730;48.870;12.542;2023-09-19T06:25:16;2.27;;;1.53;;
1475;SDS011;730;48.870;12.542;2023-09-19T06:27:45;3.07;;;1.47;;
1475;SDS011;730;48.870;12.542;2023-09-19T06:30:12;3.33;;;1.30;;
1475;SDS011;730;48.870;12.542;2023-09-19T06:32:39;2.57;;;1.03;;
1475;SDS011;730;48.870;12.542;2023-09-19T06:35:09;1.30;;;1.10;;
1475;SDS011;730;48.870;12.542;2023-09-19T06:37:37;1.90;;;1.00;;
1475;SDS011;730;48.870;12.542;2023-09-19T06:40:07;3.40;;;1.53;;
1475;SDS011;730;48.870;12.542;2023-09-19T06:42:39;3.17;;;1.83;;
1475;SDS011;730;48.870;12.542;2023-09-19T06:45:27;1.80;;;1.40;;
1475;SDS011;730;48.870;12.542;2023-09-19T06:47:53;2.13;;;1.37;;
1475;SDS011;730;48.870;12.542;2023-09-19T06:50:23;2.07;;;1.30;;
1475;SDS011;730;48.870;12.542;2023-09-19T06:52:50;2.90;;;1.33;;
1475;SDS011;730;48.870;12.542;2023-09-19T06:55:19;3.40;;;1.70;;
1475;SDS011;730;48.870;12.542;2023-09-19T06:57:46;4.13;;;1.30;;
1475;SDS011;730;48.870;12.542;2023-09-19T07:00:13;2.17;;;1.40;;
1475;SDS011;730;48.870;12.542;2023-09-19T07:02:56;2.13;;;1.37;;
1475;SDS011;730;48.870;12.542;2023-09-19T07:05:24;4.10;;;1.93;;
1475;SDS011;730;48.870;12.542;2023-09-19T07:07:50;2.30;;;1.47;;
1475;SDS011;730;48.870;12.542;2023-09-19T07:10:16;1.93;;;1.50;;
1475;SDS011;730;48.870;12.542;2023-09-19T07:12:43;1.60;;;1.30;;
1475;SDS011;730;48.870;12.542;2023-09-19T07:15:09;2.60;;;1.70;;
1475;SDS011;730;48.870;12.542;2023-09-19T07:17:35;1.50;;;1.27;;
1475;SDS011;730;48.870;12.542;2023-09-19T07:20:02;1.60;;;1.20;;
1475;SDS011;730;48.870;12.542;2023-09-19T07:22:33;1.73;;;1.30;;
1475;SDS011;730;48.870;12.542;2023-09-19T07:25:00;1.70;;;1.27;;
1475;SDS011;730;48.870;12.542;2023-09-19T07:27:26;2.73;;;1.60;;
1475;SDS011;730;48.870;12.542;2023-09-19T07:29:52;7.83;;;2.03;;
1475;SDS011;730;48.870;12.542;2023-09-19T07:32:18;2.77;;;2.00;;
1475;SDS011;730;48.870;12.542;2023-09-19T07:34:44;2.80;;;1.77;;
1475;SDS011;730;48.870;12.542;2023-09-19T07:37:10;4.00;;;1.30;;
1475;SDS011;730;48.870;12.542;2023-09-19T07:39:38;2.57;;;1.73;;
1475;SDS011;730;48.870;12.542;2023-09-19T07:42:06;1.60;;;1.50;;
1475;SDS011;730;48.870;12.542;2023-09-19T07:44:34;1.80;;;1.20;;
1475;SDS011;730;48.870;12.542;2023-09-19T07:47:01;2.20;;;1.23;;
1475;SDS011;730;48.870;12.542;2023-09-19T07:49:28;2.33;;;1.60;;
1475;SDS011;730;48.870;12.542;2023-09-19T07:51:54;2.97;;;1.70;;
1475;SDS011;730;48.870;12.542;2023-09-19T07:54:22;1.30;;;1.20;;
1475;SDS011;730;48.870;12.542;2023-09-19T07:56:48;3.53;;;1.43;;
1475;SDS011;730;48.870;12.542;2023-09-19T07:59:14;2.90;;;1.77;;
1475;SDS011;730;48.870;12.542;2023-09-19T08:01:41;2.30;;;1.50;;
1475;SDS011;730;48.870;12.542;2023-09-19T08:04:09;6.80;;;1.80;;
1475;SDS011;730;48.870;12.542;2023-09-19T08:06:35;2.03;;;1.83;;
1475;SDS011;730;48.870;12.542;2023-09-19T08:09:03;1.63;;;1.40;;
1475;SDS011;730;48.870;12.542;2023-09-19T08:11:33;2.97;;;1.40;;
1475;SDS011;730;48.870;12.542;2023-09-19T08:13:59;3.27;;;1.43;;
1475;SDS011;730;48.870;12.542;2023-09-19T08:16:26;2.50;;;1.20;;
1475;SDS011;730;48.870;12.542;2023-09-19T08:18:52;2.10;;;1.30;;
1475;SDS011;730;48.870;12.542;2023-09-19T08:21:21;3.50;;;1.40;;
1475;SDS011;730;48.870;12.542;2023-09-19T08:23:49;2.00;;;1.50;;
1475;SDS011;730;48.870;12.542;2023-09-19T08:26:16;2.17;;;1.50;;
1475;SDS011;730;48.870;12.542;2023-09-19T08:28:42;2.63;;;1.30;;
1475;SDS011;730;48.870;12.542;2023-09-19T08:31:08;3.47;;;1.73;;
1475;SDS011;730;48.870;12.542;2023-09-19T08:33:35;2.13;;;1.53;;
1475;SDS011;730;48.870;12.542;2023-09-19T08:36:04;1.70;;;1.60;;
1475;SDS011;730;48.870;12.542;2023-09-19T08:38:33;3.20;;;2.90;;
1475;SDS011;730;48.870;12.542;2023-09-19T08:41:04;3.17;;;2.50;;
1475;SDS011;730;48.870;12.542;2023-09-19T08:43:32;2.17;;;1.97;;
1475;SDS011;730;48.870;12.542;2023-09-19T08:46:03;4.73;;;2.00;;
1475;SDS011;730;48.870;12.542;2023-09-19T08:48:46;1.77;;;1.63;;
1475;SDS011;730;48.870;12.542;2023-09-19T08:51:47;2.20;;;1.77;;
1475;SDS011;730;48.870;12.542;2023-09-19T08:54:28;1.97;;;1.67;;
1475;SDS011;730;48.870;12.542;2023-09-19T08:57:00;2.50;;;1.50;;
1475;SDS011;730;48.870;12.542;2023-09-19T08:59:33;2.10;;;1.50;;
1475;SDS011;730;48.870;12.542;2023-09-19T09:02:01;2.30;;;1.57;;
1475;SDS011;730;48.870;12.542;2023-09-19T09:04:29;2.67;;;1.50;;
1475;SDS011;730;48.870;12.542;2023-09-19T09:06:56;1.67;;;1.27;;
1475;SDS011;730;48.870;12.542;2023-09-19T09:09:23;2.30;;;1.40;;
1475;SDS011;730;48.870;12.542;2023-09-19T09:11:49;5.30;;;1.50;;
1475;SDS011;730;48.870;12.542;2023-09-19T09:14:22;1.93;;;1.10;;
1475;SDS011;730;48.870;12.542;2023-09-19T09:16:57;2.67;;;1.27;;
1475;SDS011;730;48.870;12.542;2023-09-19T09:19:24;1.70;;;1.20;;
1475;SDS011;730;48.870;12.542;2023-09-19T09:21:51;1.77;;;1.33;;
1475;SDS011;730;48.870;12.542;2023-09-19T09:24:25;2.70;;;1.10;;
1475;SDS011;730;48.870;12.542;2023-09-19T09:26:54;5.93;;;1.30;;
1475;SDS011;730;48.870;12.542;2023-09-19T09:32:28;1.90;;;1.07;;
1475;SDS011;730;48.870;12.542;2023-09-19T09:34:57;1.87;;;1.30;;
1475;SDS011;730;48.870;12.542;2023-09-19T09:37:25;3.83;;;1.13;;
1475;SDS011;730;48.870;12.542;2023-09-19T09:40:01;2.40;;;1.30;;
1475;SDS011;730;48.870;12.542;2023-09-19T09:42:39;1.97;;;1.20;;
1475;SDS011;730;48.870;12.542;2023-09-19T09:45:16;1.80;;;1.53;;
1475;SDS011;730;48.870;12.542;2023-09-19T09:47:58;3.87;;;3.57;;
1475;SDS011;730;48.870;12.542;2023-09-19T09:50:29;2.03;;;1.53;;
1475;SDS011;730;48.870;12.542;2023-09-19T09:56:07;1.33;;;1.07;;
1475;SDS011;730;48.870;12.542;2023-09-19T09:58:37;3.00;;;1.57;;
1475;SDS011;730;48.870;12.542;2023-09-19T10:01:21;2.30;;;1.80;;
1475;SDS011;730;48.870;12.542;2023-09-19T10:03:57;1.50;;;1.37;;
1475;SDS011;730;48.870;12.542;2023-09-19T10:06:23;2.00;;;1.50;;
1475;SDS011;730;48.870;12.542;2023-09-19T10:09:00;2.30;;;1.40;;
1475;SDS011;730;48.870;12.542;2023-09-19T10:11:45;1.70;;;1.07;;
1475;SDS011;730;48.870;12.542;2023-09-19T10:14:16;1.13;;;0.77;;
1475;SDS011;730;48.870;12.542;2023-09-19T10:16:46;2.13;;;0.80;;
1475;SDS011;730;48.870;12.542;2023-09-19T10:19:29;1.50;;;1.00;;
1475;SDS011;730;48.870;12.542;2023-09-19T10:22:01;1.60;;;1.20;;
1475;SDS011;730;48.870;12.542;2023-09-19T10:24:27;7.33;;;1.57;;
1475;SDS011;730;48.870;12.542;2023-09-19T10:26:54;4.37;;;1.30;;
1475;SDS011;730;48.870;12.542;2023-09-19T10:29:21;1.20;;;0.80;;
1475;SDS011;730;48.870;12.542;2023-09-19T10:31:48;1.87;;;0.80;;
1475;SDS011;730;48.870;12.542;2023-09-19T10:34:18;2.13;;;1.10;;
1475;SDS011;730;48.870;12.542;2023-09-19T10:36:46;3.93;;;1.37;;
1475;SDS011;730;48.870;12.542;2023-09-19T10:39:13;3.23;;;0.87;;
1475;SDS011;730;48.870;12.542;2023-09-19T10:41:50;3.27;;;2.60;;
1475;SDS011;730;48.870;12.542;2023-09-19T10:44:21;1.70;;;1.10;;
1475;SDS011;730;48.870;12.542;2023-09-19T10:46:53;4.00;;;1.10;;
1475;SDS011;730;48.870;12.542;2023-09-19T10:49:20;1.73;;;1.20;;
1475;SDS011;730;48.870;12.542;2023-09-19T10:51:49;2.03;;;1.20;;
1475;SDS011;730;48.870;12.542;2023-09-19T10:54:21;2.63;;;1.20;;
1475;SDS011;730;48.870;12.542;2023-09-19T10:56:52;2.07;;;1.00;;
1475;SDS011;730;48.870;12.542;2023-09-19T10:59:19;1.73;;;1.03;;
1475;SDS011;730;48.870;12.542;2023-09-19T11:01:50;1.67;;;0.87;;
1475;SDS011;730;48.870;12.542;2023-09-19T11:04:30;2.90;;;0.90;;
1475;SDS011;730;48.870;12.542;2023-09-19T11:07:09;1.87;;;1.07;;
1475;SDS011;730;48.870;12.542;2023-09-19T11:09:50;2.50;;;1.20;;
1475;SDS011;730;48.870;12.542;2023-09-19T11:14:56;1.20;;;0.70;;
1475;SDS011;730;48.870;12.542;2023-09-19T11:17:32;1.23;;;1.00;;
1475;SDS011;730;48.870;12.542;2023-09-19T11:30:40;1.83;;;1.23;;
1475;SDS011;730;48.870;12.542;2023-09-19T11:33:19;1.40;;;0.90;;
1475;SDS011;730;48.870;12.542;2023-09-19T11:49:16;1.20;;;0.73;;
1475;SDS011;730;48.870;12.542;2023-09-19T11:51:52;1.80;;;0.83;;
1475;SDS011;730;48.870;12.542;2023-09-19T11:54:19;1.53;;;1.00;;
1475;SDS011;730;48.870;12.542;2023-09-19T11:56:50;1.80;;;0.77;;
1475;SDS011;730;48.870;12.542;2023-09-19T11:59:26;2.13;;;1.27;;
1475;SDS011;730;48.870;12.542;2023-09-19T12:02:06;1.30;;;1.03;;
1475;SDS011;730;48.870;12.542;2023-09-19T12:04:36;2.63;;;0.80;;
1475;SDS011;730;48.870;12.542;2023-09-19T12:07:04;1.10;;;0.87;;
1475;SDS011;730;48.870;12.542;2023-09-19T12:09:31;2.73;;;1.10;;
1475;SDS011;730;48.870;12.542;2023-09-19T12:11:57;2.13;;;0.93;;
1475;SDS011;730;48.870;12.542;2023-09-19T12:14:24;1.40;;;0.80;;
1475;SDS011;730;48.870;12.542;2023-09-19T12:16:56;1.13;;;1.00;;
1475;SDS011;730;48.870;12.542;2023-09-19T12:19:24;2.07;;;1.00;;
1475;SDS011;730;48.870;12.542;2023-09-19T12:24:30;1.80;;;1.10;;
1475;SDS011;730;48.870;12.542;2023-09-19T12:27:04;2.97;;;1.37;;
1475;SDS011;730;48.870;12.542;2023-09-19T12:29:31;1.40;;;0.97;;
1475;SDS011;730;48.870;12.542;2023-09-19T12:32:06;1.70;;;1.20;;
1475;SDS011;730;48.870;12.542;2023-09-19T12:34:33;1.10;;;0.77;;
1475;SDS011;730;48.870;12.542;2023-09-19T12:37:11;1.37;;;1.10;;
1475;SDS011;730;48.870;12.542;2023-09-19T12:39:47;1.50;;;1.20;;
1475;SDS011;730;48.870;12.542;2023-09-19T12:42:17;1.70;;;1.60;;
1475;SDS011;730;48.870;12.542;2023-09-19T12:44:53;1.30;;;1.10;;
1475;SDS011;730;48.870;12.542;2023-09-19T12:47:23;1.23;;;0.93;;
1475;SDS011;730;48.870;12.542;2023-09-19T12:52:42;1.30;;;1.10;;
1475;SDS011;730;48.870;12.542;2023-09-19T12:55:24;1.83;;;1.20;;
1475;SDS011;730;48.870;12.542;2023-09-19T13:00:35;1.60;;;1.40;;
1475;SDS011;730;48.870;12.542;2023-09-19T13:05:48;3.27;;;1.73;;
1475;SDS011;730;48.870;12.542;2023-09-19T13:08:23;1.60;;;1.07;;
1475;SDS011;730;48.870;12.542;2023-09-19T13:11:01;2.00;;;1.00;;
1475;SDS011;730;48.870;12.542;2023-09-19T13:13:39;1.33;;;0.93;;
1475;SDS011;730;48.870;12.542;2023-09-19T13:16:07;1.87;;;1.10;;
1475;SDS011;730;48.870;12.542;2023-09-19T13:18:47;1.67;;;0.90;;
1475;SDS011;730;48.870;12.542;2023-09-19T13:21:17;1.73;;;1.23;;
1475;SDS011;730;48.870;12.542;2023-09-19T13:23:53;9.83;;;2.37;;
1475;SDS011;730;48.870;12.542;2023-09-19T13:26:42;1.37;;;0.83;;
1475;SDS011;730;48.870;12.542;2023-09-19T13:29:08;1.93;;;1.07;;
1475;SDS011;730;48.870;12.542;2023-09-19T13:31:34;1.67;;;0.87;;
1475;SDS011;730;48.870;12.542;2023-09-19T13:34:00;1.40;;;1.27;;
1475;SDS011;730;48.870;12.542;2023-09-19T13:36:26;1.70;;;1.40;;
1475;SDS011;730;48.870;12.542;2023-09-19T13:38:52;2.13;;;1.20;;
1475;SDS011;730;48.870;12.542;2023-09-19T13:41:18;1.20;;;0.80;;
1475;SDS011;730;48.870;12.542;2023-09-19T13:43:44;2.10;;;0.80;;
1475;SDS011;730;48.870;12.542;2023-09-19T13:46:14;2.10;;;0.90;;
1475;SDS011;730;48.870;12.542;2023-09-19T13:48:42;1.80;;;1.20;;
1475;SDS011;730;48.870;12.542;2023-09-19T13:51:08;1.63;;;0.97;;
1475;SDS011;730;48.870;12.542;2023-09-19T13:53:34;2.33;;;0.83;;
1475;SDS011;730;48.870;12.542;2023-09-19T13:56:00;1.90;;;0.80;;
1475;SDS011;730;48.870;12.542;2023-09-19T13:58:26;2.43;;;1.00;;
1475;SDS011;730;48.870;12.542;2023-09-19T14:00:52;1.70;;;0.90;;
1475;SDS011;730;48.870;12.542;2023-09-19T14:03:23;2.00;;;0.97;;
1475;SDS011;730;48.870;12.542;2023-09-19T14:05:49;2.13;;;1.10;;
1475;SDS011;730;48.870;12.542;2023-09-19T14:08:17;1.30;;;0.97;;
1475;SDS011;730;48.870;12.542;2023-09-19T14:10:43;1.10;;;0.70;;
1475;SDS011;730;48.870;12.542;2023-09-19T14:13:09;1.13;;;0.70;;
1475;SDS011;730;48.870;12.542;2023-09-19T14:15:38;1.20;;;1.00;;
1475;SDS011;730;48.870;12.542;2023-09-19T14:18:04;1.57;;;0.90;;
1475;SDS011;730;48.870;12.542;2023-09-19T14:20:30;2.00;;;1.00;;
1475;SDS011;730;48.870;12.542;2023-09-19T14:22:57;1.50;;;0.87;;
1475;SDS011;730;48.870;12.542;2023-09-19T14:25:27;2.00;;;1.00;;
1475;SDS011;730;48.870;12.542;2023-09-19T14:27:54;1.80;;;1.00;;
1475;SDS011;730;48.870;12.542;2023-09-19T14:30:20;1.40;;;0.90;;
1475;SDS011;730;48.870;12.542;2023-09-19T14:32:47;5.53;;;1.60;;
1475;SDS011;730;48.870;12.542;2023-09-19T14:35:13;2.90;;;1.23;;
1475;SDS011;730;48.870;12.542;2023-09-19T14:37:39;1.10;;;0.70;;
1475;SDS011;730;48.870;12.542;2023-09-19T14:40:06;1.40;;;0.93;;
1475;SDS011;730;48.870;12.542;2023-09-19T14:42:35;1.57;;;0.97;;
1475;SDS011;730;48.870;12.542;2023-09-19T14:45:04;5.93;;;1.37;;
1475;SDS011;730;48.870;12.542;2023-09-19T14:47:30;7.90;;;1.80;;
1475;SDS011;730;48.870;12.542;2023-09-19T14:50:01;1.30;;;0.90;;
1475;SDS011;730;48.870;12.542;2023-09-19T14:52:34;1.30;;;0.80;;
1475;SDS011;730;48.870;12.542;2023-09-19T14:55:01;1.97;;;1.10;;
1475;SDS011;730;48.870;12.542;2023-09-19T14:57:28;1.60;;;0.90;;
1475;SDS011;730;48.870;12.542;2023-09-19T14:59:54;1.93;;;1.17;;
1475;SDS011;730;48.870;12.542;2023-09-19T15:02:20;2.40;;;1.00;;
1475;SDS011;730;48.870;12.542;2023-09-19T15:04:46;1.50;;;0.93;;
1475;SDS011;730;48.870;12.542;2023-09-19T15:07:13;3.10;;;1.03;;
1475;SDS011;730;48.870;12.542;2023-09-19T15:09:41;1.60;;;1.27;;
1475;SDS011;730;48.870;12.542;2023-09-19T15:12:07;1.53;;;0.93;;
1475;SDS011;730;48.870;12.542;2023-09-19T15:14:33;1.50;;;0.97;;
1475;SDS011;730;48.870;12.542;2023-09-19T15:16:59;1.33;;;1.10;;
1475;SDS011;730;48.870;12.542;2023-09-19T15:19:25;1.63;;;1.13;;
1475;SDS011;730;48.870;12.542;2023-09-19T15:21:52;1.20;;;1.00;;
1475;SDS011;730;48.870;12.542;2023-09-19T15:24:18;1.00;;;0.83;;
1475;SDS011;730;48.870;12.542;2023-09-19T15:26:45;1.50;;;1.30;;
1475;SDS011;730;48.870;12.542;2023-09-19T15:29:11;2.00;;;1.10;;
1475;SDS011;730;48.870;12.542;2023-09-19T15:31:38;2.27;;;1.00;;
1475;SDS011;730;48.870;12.542;2023-09-19T15:34:04;1.40;;;1.10;;
1475;SDS011;730;48.870;12.542;2023-09-19T15:36:34;1.70;;;1.10;;
1475;SDS011;730;48.870;12.542;2023-09-19T15:39:04;1.60;;;1.20;;
1475;SDS011;730;48.870;12.542;2023-09-19T15:41:35;1.53;;;1.33;;
1475;SDS011;730;48.870;12.542;2023-09-19T15:44:13;1.20;;;1.00;;
1475;SDS011;730;48.870;12.542;2023-09-19T15:46:41;1.63;;;1.10;;
1475;SDS011;730;48.870;12.542;2023-09-19T15:49:07;1.20;;;0.83;;
1475;SDS011;730;48.870;12.542;2023-09-19T15:51:33;1.53;;;0.83;;
1475;SDS011;730;48.870;12.542;2023-09-19T15:54:01;2.37;;;1.07;;
1475;SDS011;730;48.870;12.542;2023-09-19T15:56:33;1.37;;;0.97;;
1475;SDS011;730;48.870;12.542;2023-09-19T15:59:03;1.60;;;1.10;;
1475;SDS011;730;48.870;12.542;2023-09-19T16:01:29;3.73;;;1.20;;
1475;SDS011;730;48.870;12.542;2023-09-19T16:03:55;2.00;;;1.23;;
1475;SDS011;730;48.870;12.542;2023-09-19T16:06:22;2.13;;;1.93;;
1475;SDS011;730;48.870;12.542;2023-09-19T16:08:50;2.87;;;2.53;;
1475;SDS011;730;48.870;12.542;2023-09-19T16:11:18;2.50;;;1.40;;
1475;SDS011;730;48.870;12.542;2023-09-19T16:13:48;2.50;;;1.33;;
1475;SDS011;730;48.870;12.542;2023-09-19T16:16:15;1.50;;;1.00;;
1475;SDS011;730;48.870;12.542;2023-09-19T16:18:45;3.13;;;1.40;;
1475;SDS011;730;48.870;12.542;2023-09-19T16:21:13;2.03;;;1.40;;
1475;SDS011;730;48.870;12.542;2023-09-19T16:23:40;1.50;;;0.93;;